sensor_id;sensor_type;location;lat;lon;timestamp;temperature;humidity
62589;DHT22;58504;48.770;9.148;2023-03-01T00:01:18;20.00;47.10
62589;DHT22;58504;48.770;9.148;2023-03-01T00:03:45;20.00;47.30
62589;DHT22;58504;48.770;9.148;2023-03-01T00:06:12;19.90;47.20
62589;DHT22;58504;48.770;9.148;2023-03-01T00:08:38;19.90;47.20
62589;DHT22;58504;48.770;9.148;2023-03-01T00:11:07;19.90;47.30
62589;DHT22;58504;48.770;9.148;2023-03-01T00:13:35;19.80;47.30
62589;DHT22;58504;48.770;9.148;2023-03-01T00:16:02;19.80;47.30
62589;DHT22;58504;48.770;9.148;2023-03-01T00:18:31;19.70;47.30
62589;DHT22;58504;48.770;9.148;2023-03-01T00:20:58;19.70;47.40
62589;DHT22;58504;48.770;9.148;2023-03-01T00:23:25;19.70;47.50
62589;DHT22;58504;48.770;9.148;2023-03-01T00:25:52;19.70;47.50
62589;DHT22;58504;48.770;9.148;2023-03-01T00:28:19;19.70;47.50
62589;DHT22;58504;48.770;9.148;2023-03-01T00:30:46;19.70;47.60
62589;DHT22;58504;48.770;9.148;2023-03-01T00:33:13;19.60;47.50
62589;DHT22;58504;48.770;9.148;2023-03-01T00:35:41;19.60;47.60
62589;DHT22;58504;48.770;9.148;2023-03-01T00:38:08;19.60;47.60
62589;DHT22;58504;48.770;9.148;2023-03-01T00:40:36;19.50;47.50
62589;DHT22;58504;48.770;9.148;2023-03-01T00:43:03;19.50;47.60
62589;DHT22;58504;48.770;9.148;2023-03-01T00:45:30;19.50;47.60
62589;DHT22;58504;48.770;9.148;2023-03-01T00:47:57;19.50;47.70
62589;DHT22;58504;48.770;9.148;2023-03-01T00:50:24;19.40;47.60
62589;DHT22;58504;48.770;9.148;2023-03-01T00:52:54;19.50;47.70
62589;DHT22;58504;48.770;9.148;2023-03-01T00:55:21;19.40;47.60
62589;DHT22;58504;48.770;9.148;2023-03-01T00:57:48;19.40;47.60
62589;DHT22;58504;48.770;9.148;2023-03-01T01:00:16;19.40;47.60
62589;DHT22;58504;48.770;9.148;2023-03-01T01:02:43;19.40;47.60
62589;DHT22;58504;48.770;9.148;2023-03-01T01:05:10;19.40;47.60
62589;DHT22;58504;48.770;9.148;2023-03-01T01:07:37;19.40;47.60
62589;DHT22;58504;48.770;9.148;2023-03-01T01:10:06;19.30;47.60
62589;DHT22;58504;48.770;9.148;2023-03-01T01:12:33;19.30;47.60
62589;DHT22;58504;48.770;9.148;2023-03-01T01:15:00;19.30;47.60
62589;DHT22;58504;48.770;9.148;2023-03-01T01:17:27;19.30;47.70
62589;DHT22;58504;48.770;9.148;2023-03-01T01:19:54;19.30;47.70
62589;DHT22;58504;48.770;9.148;2023-03-01T01:22:20;19.30;47.70
62589;DHT22;58504;48.770;9.148;2023-03-01T01:24:47;19.20;47.60
62589;DHT22;58504;48.770;9.148;2023-03-01T01:27:15;19.20;47.70
62589;DHT22;58504;48.770;9.148;2023-03-01T01:29:42;19.20;47.70
62589;DHT22;58504;48.770;9.148;2023-03-01T01:32:09;19.20;47.70
62589;DHT22;58504;48.770;9.148;2023-03-01T01:34:35;19.20;47.70
62589;DHT22;58504;48.770;9.148;2023-03-01T01:37:02;19.10;47.60
62589;DHT22;58504;48.770;9.148;2023-03-01T01:39:33;19.10;47.60
62589;DHT22;58504;48.770;9.148;2023-03-01T01:42:00;19.10;47.70
62589;DHT22;58504;48.770;9.148;2023-03-01T01:44:28;19.10;47.70
62589;DHT22;58504;48.770;9.148;2023-03-01T01:46:58;19.10;47.70
62589;DHT22;58504;48.770;9.148;2023-03-01T01:49:30;19.10;47.70
62589;DHT22;58504;48.770;9.148;2023-03-01T01:52:02;19.00;47.70
62589;DHT22;58504;48.770;9.148;2023-03-01T01:54:32;19.00;47.70
62589;DHT22;58504;48.770;9.148;2023-03-01T01:57:03;19.00;47.70
62589;DHT22;58504;48.770;9.148;2023-03-01T01:59:33;19.00;47.80
62589;DHT22;58504;48.770;9.148;2023-03-01T02:02:02;19.00;47.80
62589;DHT22;58504;48.770;9.148;2023-03-01T02:04:30;18.90;47.70
62589;DHT22;58504;48.770;9.148;2023-03-01T02:07:00;18.90;47.70
62589;DHT22;58504;48.770;9.148;2023-03-01T02:09:28;18.90;47.70
62589;DHT22;58504;48.770;9.148;2023-03-01T02:11:57;18.90;47.70
62589;DHT22;58504;48.770;9.148;2023-03-01T02:14:24;18.90;47.70
62589;DHT22;58504;48.770;9.148;2023-03-01T02:16:53;18.90;47.80
62589;DHT22;58504;48.770;9.148;2023-03-01T02:19:30;18.90;47.70
62589;DHT22;58504;48.770;9.148;2023-03-01T02:22:05;18.90;47.80
62589;DHT22;58504;48.770;9.148;2023-03-01T02:24:40;18.90;47.80
62589;DHT22;58504;48.770;9.148;2023-03-01T02:27:13;18.80;47.70
62589;DHT22;58504;48.770;9.148;2023-03-01T02:29:41;18.80;47.80
62589;DHT22;58504;48.770;9.148;2023-03-01T02:32:11;18.80;47.70
62589;DHT22;58504;48.770;9.148;2023-03-01T02:34:38;18.80;47.80
62589;DHT22;58504;48.770;9.148;2023-03-01T02:37:10;18.80;47.80
62589;DHT22;58504;48.770;9.148;2023-03-01T02:39:39;18.80;47.80
62589;DHT22;58504;48.770;9.148;2023-03-01T02:42:09;18.80;47.80
62589;DHT22;58504;48.770;9.148;2023-03-01T02:44:37;18.70;47.80
62589;DHT22;58504;48.770;9.148;2023-03-01T02:47:06;18.80;47.90
62589;DHT22;58504;48.770;9.148;2023-03-01T02:49:34;18.70;47.80
62589;DHT22;58504;48.770;9.148;2023-03-01T02:55:07;18.70;47.90
62589;DHT22;58504;48.770;9.148;2023-03-01T02:57:36;18.70;47.90
62589;DHT22;58504;48.770;9.148;2023-03-01T03:00:06;18.70;47.90
62589;DHT22;58504;48.770;9.148;2023-03-01T03:02:35;18.60;47.80
62589;DHT22;58504;48.770;9.148;2023-03-01T03:05:08;18.60;47.90
62589;DHT22;58504;48.770;9.148;2023-03-01T03:07:36;18.60;47.90
62589;DHT22;58504;48.770;9.148;2023-03-01T03:10:04;18.60;47.90
62589;DHT22;58504;48.770;9.148;2023-03-01T03:12:31;18.60;47.90
62589;DHT22;58504;48.770;9.148;2023-03-01T03:14:58;18.60;47.90
62589;DHT22;58504;48.770;9.148;2023-03-01T03:17:25;18.60;47.90
62589;DHT22;58504;48.770;9.148;2023-03-01T03:19:53;18.60;48.00
62589;DHT22;58504;48.770;9.148;2023-03-01T03:22:20;18.60;48.00
62589;DHT22;58504;48.770;9.148;2023-03-01T03:24:46;18.50;48.00
62589;DHT22;58504;48.770;9.148;2023-03-01T03:27:13;18.50;47.90
62589;DHT22;58504;48.770;9.148;2023-03-01T03:29:40;18.50;48.00
62589;DHT22;58504;48.770;9.148;2023-03-01T03:32:07;18.50;48.00
62589;DHT22;58504;48.770;9.148;2023-03-01T03:34:33;18.50;48.00
62589;DHT22;58504;48.770;9.148;2023-03-01T03:37:01;18.40;48.00
62589;DHT22;58504;48.770;9.148;2023-03-01T03:39:28;18.40;48.00
62589;DHT22;58504;48.770;9.148;2023-03-01T03:42:00;18.40;48.00
62589;DHT22;58504;48.770;9.148;2023-03-01T03:44:27;18.50;48.10
62589;DHT22;58504;48.770;9.148;2023-03-01T03:46:54;18.40;48.10
62589;DHT22;58504;48.770;9.148;2023-03-01T03:49:20;18.40;48.10
62589;DHT22;58504;48.770;9.148;2023-03-01T03:51:47;18.40;48.10
62589;DHT22;58504;48.770;9.148;2023-03-01T03:54:15;18.40;48.10
62589;DHT22;58504;48.770;9.148;2023-03-01T03:56:42;18.40;48.10
62589;DHT22;58504;48.770;9.148;2023-03-01T03:59:09;18.40;48.10
62589;DHT22;58504;48.770;9.148;2023-03-01T04:01:36;18.40;48.20
62589;DHT22;58504;48.770;9.148;2023-03-01T04:04:03;18.30;48.10
62589;DHT22;58504;48.770;9.148;2023-03-01T04:06:30;18.30;48.10
62589;DHT22;58504;48.770;9.148;2023-03-01T04:08:57;18.30;48.10
62589;DHT22;58504;48.770;9.148;2023-03-01T04:11:27;18.30;48.10
62589;DHT22;58504;48.770;9.148;2023-03-01T04:13:55;18.30;48.20
62589;DHT22;58504;48.770;9.148;2023-03-01T04:16:22;18.30;48.20
62589;DHT22;58504;48.770;9.148;2023-03-01T04:18:49;18.30;48.20
62589;DHT22;58504;48.770;9.148;2023-03-01T04:21:17;18.30;48.20
62589;DHT22;58504;48.770;9.148;2023-03-01T04:23:45;18.30;48.20
62589;DHT22;58504;48.770;9.148;2023-03-01T04:26:12;18.30;48.20
62589;DHT22;58504;48.770;9.148;2023-03-01T04:28:41;18.20;48.10
62589;DHT22;58504;48.770;9.148;2023-03-01T04:31:12;18.30;48.20
62589;DHT22;58504;48.770;9.148;2023-03-01T04:33:39;18.40;48.20
62589;DHT22;58504;48.770;9.148;2023-03-01T04:36:08;18.70;47.90
62589;DHT22;58504;48.770;9.148;2023-03-01T04:38:35;19.10;47.30
62589;DHT22;58504;48.770;9.148;2023-03-01T04:41:04;19.50;46.70
62589;DHT22;58504;48.770;9.148;2023-03-01T04:43:30;19.90;45.90
62589;DHT22;58504;48.770;9.148;2023-03-01T04:46:02;20.30;45.30
62589;DHT22;58504;48.770;9.148;2023-03-01T04:48:30;20.70;44.70
62589;DHT22;58504;48.770;9.148;2023-03-01T04:50:57;21.00;44.00
62589;DHT22;58504;48.770;9.148;2023-03-01T04:53:24;21.20;43.70
62589;DHT22;58504;48.770;9.148;2023-03-01T04:55:51;21.30;43.20
62589;DHT22;58504;48.770;9.148;2023-03-01T04:58:18;21.40;43.10
62589;DHT22;58504;48.770;9.148;2023-03-01T05:00:45;21.50;42.90
62589;DHT22;58504;48.770;9.148;2023-03-01T05:03:13;21.60;42.80
62589;DHT22;58504;48.770;9.148;2023-03-01T05:05:44;21.70;42.70
62589;DHT22;58504;48.770;9.148;2023-03-01T05:08:11;21.70;42.50
62589;DHT22;58504;48.770;9.148;2023-03-01T05:10:43;21.80;42.50
62589;DHT22;58504;48.770;9.148;2023-03-01T05:13:11;21.90;42.30
62589;DHT22;58504;48.770;9.148;2023-03-01T05:15:40;21.90;42.10
62589;DHT22;58504;48.770;9.148;2023-03-01T05:18:07;22.00;42.10
62589;DHT22;58504;48.770;9.148;2023-03-01T05:20:38;22.10;42.00
62589;DHT22;58504;48.770;9.148;2023-03-01T05:23:05;22.10;41.90
62589;DHT22;58504;48.770;9.148;2023-03-01T05:25:32;22.20;41.90
62589;DHT22;58504;48.770;9.148;2023-03-01T05:28:00;22.20;41.70
62589;DHT22;58504;48.770;9.148;2023-03-01T05:30:30;22.30;41.70
62589;DHT22;58504;48.770;9.148;2023-03-01T05:32:56;22.40;41.60
62589;DHT22;58504;48.770;9.148;2023-03-01T05:35:24;22.40;41.50
62589;DHT22;58504;48.770;9.148;2023-03-01T05:37:52;22.40;41.40
62589;DHT22;58504;48.770;9.148;2023-03-01T05:40:20;22.50;41.30
62589;DHT22;58504;48.770;9.148;2023-03-01T05:42:49;22.50;41.30
62589;DHT22;58504;48.770;9.148;2023-03-01T05:45:17;22.60;41.30
62589;DHT22;58504;48.770;9.148;2023-03-01T05:47:45;22.60;41.20
62589;DHT22;58504;48.770;9.148;2023-03-01T05:50:14;22.60;41.10
62589;DHT22;58504;48.770;9.148;2023-03-01T05:52:45;22.70;41.20
62589;DHT22;58504;48.770;9.148;2023-03-01T05:55:14;22.80;41.20
62589;DHT22;58504;48.770;9.148;2023-03-01T05:57:40;22.70;41.00
62589;DHT22;58504;48.770;9.148;2023-03-01T06:00:08;22.80;41.00
62589;DHT22;58504;48.770;9.148;2023-03-01T06:02:35;22.80;40.90
62589;DHT22;58504;48.770;9.148;2023-03-01T06:05:03;22.90;40.90
62589;DHT22;58504;48.770;9.148;2023-03-01T06:07:30;22.80;40.80
62589;DHT22;58504;48.770;9.148;2023-03-01T06:09:57;22.90;40.80
62589;DHT22;58504;48.770;9.148;2023-03-01T06:12:25;22.90;40.80
62589;DHT22;58504;48.770;9.148;2023-03-01T06:14:52;23.00;40.80
62589;DHT22;58504;48.770;9.148;2023-03-01T06:17:19;23.00;40.90
62589;DHT22;58504;48.770;9.148;2023-03-01T06:19:46;23.00;41.00
62589;DHT22;58504;48.770;9.148;2023-03-01T06:22:13;22.90;41.10
62589;DHT22;58504;48.770;9.148;2023-03-01T06:24:40;22.80;41.40
62589;DHT22;58504;48.770;9.148;2023-03-01T06:27:07;22.70;41.50
62589;DHT22;58504;48.770;9.148;2023-03-01T06:29:35;22.70;41.70
62589;DHT22;58504;48.770;9.148;2023-03-01T06:32:02;22.80;41.80
62589;DHT22;58504;48.770;9.148;2023-03-01T06:34:29;22.90;41.90
62589;DHT22;58504;48.770;9.148;2023-03-01T06:36:56;23.00;41.70
62589;DHT22;58504;48.770;9.148;2023-03-01T06:39:22;23.10;41.50
62589;DHT22;58504;48.770;9.148;2023-03-01T06:41:49;23.10;41.40
62589;DHT22;58504;48.770;9.148;2023-03-01T06:44:16;23.20;41.30
62589;DHT22;58504;48.770;9.148;2023-03-01T06:46:44;23.20;41.30
62589;DHT22;58504;48.770;9.148;2023-03-01T06:49:11;23.30;41.40
62589;DHT22;58504;48.770;9.148;2023-03-01T06:51:38;23.20;41.40
62589;DHT22;58504;48.770;9.148;2023-03-01T06:54:05;23.20;41.50
62589;DHT22;58504;48.770;9.148;2023-03-01T06:56:32;23.30;41.50
62589;DHT22;58504;48.770;9.148;2023-03-01T06:58:59;23.30;41.50
62589;DHT22;58504;48.770;9.148;2023-03-01T07:01:26;23.40;41.60
62589;DHT22;58504;48.770;9.148;2023-03-01T07:03:54;23.40;41.40
62589;DHT22;58504;48.770;9.148;2023-03-01T07:06:20;23.50;41.50
62589;DHT22;58504;48.770;9.148;2023-03-01T07:08:47;23.50;41.40
62589;DHT22;58504;48.770;9.148;2023-03-01T07:11:15;23.60;42.20
62589;DHT22;58504;48.770;9.148;2023-03-01T07:13:41;23.60;42.40
62589;DHT22;58504;48.770;9.148;2023-03-01T07:16:08;23.60;42.50
62589;DHT22;58504;48.770;9.148;2023-03-01T07:18:35;23.70;42.70
62589;DHT22;58504;48.770;9.148;2023-03-01T07:21:07;23.70;42.60
62589;DHT22;58504;48.770;9.148;2023-03-01T07:23:35;23.80;42.50
62589;DHT22;58504;48.770;9.148;2023-03-01T07:26:01;24.00;42.20
62589;DHT22;58504;48.770;9.148;2023-03-01T07:28:28;24.10;42.10
62589;DHT22;58504;48.770;9.148;2023-03-01T07:31:00;24.20;41.80
62589;DHT22;58504;48.770;9.148;2023-03-01T07:33:27;24.40;41.70
62589;DHT22;58504;48.770;9.148;2023-03-01T07:35:56;24.50;41.70
62589;DHT22;58504;48.770;9.148;2023-03-01T07:38:25;24.60;41.40
62589;DHT22;58504;48.770;9.148;2023-03-01T07:40:52;24.70;41.20
62589;DHT22;58504;48.770;9.148;2023-03-01T07:43:19;24.80;41.10
62589;DHT22;58504;48.770;9.148;2023-03-01T07:45:46;24.90;41.00
62589;DHT22;58504;48.770;9.148;2023-03-01T07:48:13;25.00;40.80
62589;DHT22;58504;48.770;9.148;2023-03-01T07:50:40;25.00;40.70
62589;DHT22;58504;48.770;9.148;2023-03-01T07:53:07;25.20;40.60
62589;DHT22;58504;48.770;9.148;2023-03-01T07:55:35;25.30;40.30
62589;DHT22;58504;48.770;9.148;2023-03-01T07:58:01;25.30;40.00
62589;DHT22;58504;48.770;9.148;2023-03-01T08:00:28;25.50;39.80
62589;DHT22;58504;48.770;9.148;2023-03-01T08:02:58;25.60;39.60
62589;DHT22;58504;48.770;9.148;2023-03-01T08:05:25;25.70;39.40
62589;DHT22;58504;48.770;9.148;2023-03-01T08:07:52;25.80;39.20
62589;DHT22;58504;48.770;9.148;2023-03-01T08:10:19;25.80;39.20
62589;DHT22;58504;48.770;9.148;2023-03-01T08:12:47;25.80;39.10
62589;DHT22;58504;48.770;9.148;2023-03-01T08:15:14;25.90;39.20
62589;DHT22;58504;48.770;9.148;2023-03-01T08:17:41;25.90;39.20
62589;DHT22;58504;48.770;9.148;2023-03-01T08:20:09;26.00;39.10
62589;DHT22;58504;48.770;9.148;2023-03-01T08:22:37;26.10;39.20
62589;DHT22;58504;48.770;9.148;2023-03-01T08:25:05;26.10;39.10
62589;DHT22;58504;48.770;9.148;2023-03-01T08:27:31;26.20;39.20
62589;DHT22;58504;48.770;9.148;2023-03-01T08:29:59;26.20;39.10
62589;DHT22;58504;48.770;9.148;2023-03-01T08:32:26;26.20;39.30
62589;DHT22;58504;48.770;9.148;2023-03-01T08:34:53;26.20;39.00
62589;DHT22;58504;48.770;9.148;2023-03-01T08:37:20;26.30;37.90
62589;DHT22;58504;48.770;9.148;2023-03-01T08:39:47;26.00;32.10
62589;DHT22;58504;48.770;9.148;2023-03-01T08:42:13;25.50;37.80
62589;DHT22;58504;48.770;9.148;2023-03-01T08:44:40;25.60;37.60
62589;DHT22;58504;48.770;9.148;2023-03-01T08:47:08;25.70;37.60
62589;DHT22;58504;48.770;9.148;2023-03-01T08:49:35;25.70;37.70
62589;DHT22;58504;48.770;9.148;2023-03-01T08:52:02;25.80;37.90
62589;DHT22;58504;48.770;9.148;2023-03-01T08:54:29;25.80;38.10
62589;DHT22;58504;48.770;9.148;2023-03-01T08:56:56;25.80;38.30
62589;DHT22;58504;48.770;9.148;2023-03-01T08:59:25;25.90;38.50
62589;DHT22;58504;48.770;9.148;2023-03-01T09:01:52;25.90;38.60
62589;DHT22;58504;48.770;9.148;2023-03-01T09:04:20;25.90;38.60
62589;DHT22;58504;48.770;9.148;2023-03-01T09:06:47;25.90;38.70
62589;DHT22;58504;48.770;9.148;2023-03-01T09:09:15;26.00;38.80
62589;DHT22;58504;48.770;9.148;2023-03-01T09:11:43;26.10;39.00
62589;DHT22;58504;48.770;9.148;2023-03-01T09:14:11;26.00;38.90
62589;DHT22;58504;48.770;9.148;2023-03-01T09:16:38;26.00;38.90
62589;DHT22;58504;48.770;9.148;2023-03-01T09:19:05;26.00;39.00
62589;DHT22;58504;48.770;9.148;2023-03-01T09:21:33;26.00;39.10
62589;DHT22;58504;48.770;9.148;2023-03-01T09:24:00;26.20;39.30
62589;DHT22;58504;48.770;9.148;2023-03-01T09:26:27;26.20;39.10
62589;DHT22;58504;48.770;9.148;2023-03-01T09:28:55;26.10;39.20
62589;DHT22;58504;48.770;9.148;2023-03-01T09:31:23;26.10;39.30
62589;DHT22;58504;48.770;9.148;2023-03-01T09:33:52;26.10;39.20
62589;DHT22;58504;48.770;9.148;2023-03-01T09:36:20;26.20;39.20
62589;DHT22;58504;48.770;9.148;2023-03-01T09:38:49;26.10;39.20
62589;DHT22;58504;48.770;9.148;2023-03-01T09:41:42;26.10;39.40
62589;DHT22;58504;48.770;9.148;2023-03-01T09:44:16;26.10;39.60
62589;DHT22;58504;48.770;9.148;2023-03-01T09:46:45;26.10;39.60
62589;DHT22;58504;48.770;9.148;2023-03-01T09:49:16;26.10;40.10
62589;DHT22;58504;48.770;9.148;2023-03-01T09:51:49;26.00;39.60
62589;DHT22;58504;48.770;9.148;2023-03-01T09:54:20;26.00;39.50
62589;DHT22;58504;48.770;9.148;2023-03-01T09:56:56;26.10;39.50
62589;DHT22;58504;48.770;9.148;2023-03-01T09:59:28;26.10;39.50
62589;DHT22;58504;48.770;9.148;2023-03-01T10:02:00;26.20;39.50
62589;DHT22;58504;48.770;9.148;2023-03-01T10:04:40;26.20;39.50
62589;DHT22;58504;48.770;9.148;2023-03-01T10:07:21;26.20;39.50
62589;DHT22;58504;48.770;9.148;2023-03-01T10:09:54;26.20;39.50
62589;DHT22;58504;48.770;9.148;2023-03-01T10:12:24;26.30;39.50
62589;DHT22;58504;48.770;9.148;2023-03-01T10:14:57;26.30;39.50
62589;DHT22;58504;48.770;9.148;2023-03-01T10:17:30;26.50;39.40
62589;DHT22;58504;48.770;9.148;2023-03-01T10:19:58;26.60;39.30
62589;DHT22;58504;48.770;9.148;2023-03-01T10:22:36;26.60;39.20
62589;DHT22;58504;48.770;9.148;2023-03-01T10:25:05;26.70;39.10
62589;DHT22;58504;48.770;9.148;2023-03-01T10:27:40;26.60;39.10
62589;DHT22;58504;48.770;9.148;2023-03-01T10:30:17;26.60;39.10
62589;DHT22;58504;48.770;9.148;2023-03-01T10:32:45;26.60;39.10
62589;DHT22;58504;48.770;9.148;2023-03-01T10:35:17;26.60;39.20
62589;DHT22;58504;48.770;9.148;2023-03-01T10:37:57;26.60;39.40
62589;DHT22;58504;48.770;9.148;2023-03-01T10:40:25;26.60;39.30
62589;DHT22;58504;48.770;9.148;2023-03-01T10:42:52;26.60;39.60
62589;DHT22;58504;48.770;9.148;2023-03-01T10:45:31;26.60;39.70
62589;DHT22;58504;48.770;9.148;2023-03-01T10:48:20;26.50;39.80
62589;DHT22;58504;48.770;9.148;2023-03-01T10:50:50;26.40;39.80
62589;DHT22;58504;48.770;9.148;2023-03-01T10:53:26;26.50;39.90
62589;DHT22;58504;48.770;9.148;2023-03-01T10:56:01;24.80;24.00
62589;DHT22;58504;48.770;9.148;2023-03-01T10:58:30;22.40;24.80
62589;DHT22;58504;48.770;9.148;2023-03-01T11:01:00;21.60;30.00
62589;DHT22;58504;48.770;9.148;2023-03-01T11:03:28;21.70;33.60
62589;DHT22;58504;48.770;9.148;2023-03-01T11:05:59;22.10;34.70
62589;DHT22;58504;48.770;9.148;2023-03-01T11:08:40;22.60;35.10
62589;DHT22;58504;48.770;9.148;2023-03-01T11:11:22;23.20;35.90
62589;DHT22;58504;48.770;9.148;2023-03-01T11:13:51;23.90;35.80
62589;DHT22;58504;48.770;9.148;2023-03-01T11:16:27;24.50;35.70
62589;DHT22;58504;48.770;9.148;2023-03-01T11:19:01;25.00;35.10
62589;DHT22;58504;48.770;9.148;2023-03-01T11:21:30;25.60;35.00
62589;DHT22;58504;48.770;9.148;2023-03-01T11:24:00;25.90;34.60
62589;DHT22;58504;48.770;9.148;2023-03-01T11:26:30;26.20;34.50
62589;DHT22;58504;48.770;9.148;2023-03-01T11:29:02;26.30;34.50
62589;DHT22;58504;48.770;9.148;2023-03-01T11:31:31;26.40;34.60
62589;DHT22;58504;48.770;9.148;2023-03-01T11:34:05;26.40;35.00
62589;DHT22;58504;48.770;9.148;2023-03-01T11:36:38;26.30;35.30
62589;DHT22;58504;48.770;9.148;2023-03-01T11:39:20;26.30;35.90
62589;DHT22;58504;48.770;9.148;2023-03-01T11:41:52;26.20;36.30
62589;DHT22;58504;48.770;9.148;2023-03-01T11:44:28;26.20;36.80
62589;DHT22;58504;48.770;9.148;2023-03-01T11:47:13;26.20;37.60
62589;DHT22;58504;48.770;9.148;2023-03-01T11:50:05;26.20;38.00
62589;DHT22;58504;48.770;9.148;2023-03-01T11:52:42;26.20;38.40
62589;DHT22;58504;48.770;9.148;2023-03-01T11:55:25;26.10;38.50
62589;DHT22;58504;48.770;9.148;2023-03-01T12:01:08;26.00;38.90
62589;DHT22;58504;48.770;9.148;2023-03-01T12:03:50;26.00;39.20
62589;DHT22;58504;48.770;9.148;2023-03-01T12:06:39;26.00;39.50
62589;DHT22;58504;48.770;9.148;2023-03-01T12:12:27;25.90;39.70
62589;DHT22;58504;48.770;9.148;2023-03-01T12:15:06;25.90;39.80
62589;DHT22;58504;48.770;9.148;2023-03-01T12:17:57;25.90;39.80
62589;DHT22;58504;48.770;9.148;2023-03-01T12:20:32;25.90;39.90
62589;DHT22;58504;48.770;9.148;2023-03-01T12:23:26;25.80;39.70
62589;DHT22;58504;48.770;9.148;2023-03-01T12:25:58;25.80;40.10
62589;DHT22;58504;48.770;9.148;2023-03-01T12:31:48;25.90;40.90
62589;DHT22;58504;48.770;9.148;2023-03-01T12:34:29;26.20;40.50
62589;DHT22;58504;48.770;9.148;2023-03-01T12:37:17;26.50;40.00
62589;DHT22;58504;48.770;9.148;2023-03-01T12:39:57;26.90;39.30
62589;DHT22;58504;48.770;9.148;2023-03-01T12:42:36;27.10;38.70
62589;DHT22;58504;48.770;9.148;2023-03-01T12:45:32;27.30;38.50
62589;DHT22;58504;48.770;9.148;2023-03-01T12:48:13;27.40;38.30
62589;DHT22;58504;48.770;9.148;2023-03-01T12:50:47;27.30;38.20
62589;DHT22;58504;48.770;9.148;2023-03-01T12:53:24;27.40;38.40
62589;DHT22;58504;48.770;9.148;2023-03-01T12:55:54;27.20;38.40
62589;DHT22;58504;48.770;9.148;2023-03-01T12:58:26;27.10;38.50
62589;DHT22;58504;48.770;9.148;2023-03-01T13:01:04;27.20;38.90
62589;DHT22;58504;48.770;9.148;2023-03-01T13:03:48;27.00;38.80
62589;DHT22;58504;48.770;9.148;2023-03-01T13:06:23;26.80;39.10
62589;DHT22;58504;48.770;9.148;2023-03-01T13:08:58;26.80;39.10
62589;DHT22;58504;48.770;9.148;2023-03-01T13:11:26;26.60;39.80
62589;DHT22;58504;48.770;9.148;2023-03-01T13:16:59;26.30;39.50
62589;DHT22;58504;48.770;9.148;2023-03-01T13:19:28;26.20;39.50
62589;DHT22;58504;48.770;9.148;2023-03-01T13:21:55;26.10;39.60
62589;DHT22;58504;48.770;9.148;2023-03-01T13:24:25;26.20;39.80
62589;DHT22;58504;48.770;9.148;2023-03-01T13:27:23;26.00;39.50
62589;DHT22;58504;48.770;9.148;2023-03-01T13:29:56;25.90;39.40
62589;DHT22;58504;48.770;9.148;2023-03-01T13:32:28;25.80;39.20
62589;DHT22;58504;48.770;9.148;2023-03-01T13:34:58;25.80;39.80
62589;DHT22;58504;48.770;9.148;2023-03-01T13:37:28;25.60;39.80
62589;DHT22;58504;48.770;9.148;2023-03-01T13:39:57;25.50;39.70
62589;DHT22;58504;48.770;9.148;2023-03-01T13:42:36;25.60;40.00
62589;DHT22;58504;48.770;9.148;2023-03-01T13:45:12;25.60;40.10
62589;DHT22;58504;48.770;9.148;2023-03-01T13:50:17;26.20;39.60
62589;DHT22;58504;48.770;9.148;2023-03-01T13:52:48;26.40;39.20
62589;DHT22;58504;48.770;9.148;2023-03-01T13:55:21;26.70;38.60
62589;DHT22;58504;48.770;9.148;2023-03-01T13:57:51;27.00;38.00
62589;DHT22;58504;48.770;9.148;2023-03-01T14:00:35;27.40;37.20
62589;DHT22;58504;48.770;9.148;2023-03-01T14:03:10;28.70;35.40
62589;DHT22;58504;48.770;9.148;2023-03-01T14:05:40;31.50;32.20
62589;DHT22;58504;48.770;9.148;2023-03-01T14:08:19;32.90;29.60
62589;DHT22;58504;48.770;9.148;2023-03-01T14:13:54;34.10;28.10
62589;DHT22;58504;48.770;9.148;2023-03-01T14:16:33;34.20;27.90
62589;DHT22;58504;48.770;9.148;2023-03-01T14:19:14;34.20;27.80
62589;DHT22;58504;48.770;9.148;2023-03-01T14:21:44;34.10;27.90
62589;DHT22;58504;48.770;9.148;2023-03-01T14:24:18;33.90;28.00
62589;DHT22;58504;48.770;9.148;2023-03-01T14:26:46;33.70;28.20
62589;DHT22;58504;48.770;9.148;2023-03-01T14:29:27;33.50;28.50
62589;DHT22;58504;48.770;9.148;2023-03-01T14:31:54;32.90;28.90
62589;DHT22;58504;48.770;9.148;2023-03-01T14:34:23;32.50;29.30
62589;DHT22;58504;48.770;9.148;2023-03-01T14:36:51;31.90;30.10
62589;DHT22;58504;48.770;9.148;2023-03-01T14:39:20;31.00;31.00
62589;DHT22;58504;48.770;9.148;2023-03-01T14:41:51;30.00;32.40
62589;DHT22;58504;48.770;9.148;2023-03-01T14:44:21;29.30;33.50
62589;DHT22;58504;48.770;9.148;2023-03-01T14:46:52;28.90;34.00
62589;DHT22;58504;48.770;9.148;2023-03-01T14:49:21;28.70;34.70
62589;DHT22;58504;48.770;9.148;2023-03-01T14:51:53;28.60;35.00
62589;DHT22;58504;48.770;9.148;2023-03-01T14:54:23;28.50;35.10
62589;DHT22;58504;48.770;9.148;2023-03-01T14:56:52;28.40;35.30
62589;DHT22;58504;48.770;9.148;2023-03-01T14:59:21;28.40;35.50
62589;DHT22;58504;48.770;9.148;2023-03-01T15:01:49;28.20;36.00
62589;DHT22;58504;48.770;9.148;2023-03-01T15:04:51;27.90;36.50
62589;DHT22;58504;48.770;9.148;2023-03-01T15:16:45;26.80;39.70
62589;DHT22;58504;48.770;9.148;2023-03-01T15:19:17;26.70;39.10
62589;DHT22;58504;48.770;9.148;2023-03-01T15:21:58;26.50;39.30
62589;DHT22;58504;48.770;9.148;2023-03-01T15:24:48;26.40;39.60
62589;DHT22;58504;48.770;9.148;2023-03-01T15:27:29;26.30;39.80
62589;DHT22;58504;48.770;9.148;2023-03-01T15:29:58;26.40;39.80
62589;DHT22;58504;48.770;9.148;2023-03-01T15:32:30;26.60;39.60
62589;DHT22;58504;48.770;9.148;2023-03-01T15:34:57;26.80;39.20
62589;DHT22;58504;48.770;9.148;2023-03-01T15:37:40;27.00;39.00
62589;DHT22;58504;48.770;9.148;2023-03-01T15:40:19;27.20;38.70
62589;DHT22;58504;48.770;9.148;2023-03-01T15:42:46;27.30;38.40
62589;DHT22;58504;48.770;9.148;2023-03-01T15:45:22;27.30;38.20
62589;DHT22;58504;48.770;9.148;2023-03-01T15:47:53;27.20;38.40
62589;DHT22;58504;48.770;9.148;2023-03-01T15:50:22;27.10;38.60
62589;DHT22;58504;48.770;9.148;2023-03-01T15:52:49;27.10;39.00
62589;DHT22;58504;48.770;9.148;2023-03-01T15:55:18;27.00;39.10
62589;DHT22;58504;48.770;9.148;2023-03-01T15:57:46;26.90;39.40
62589;DHT22;58504;48.770;9.148;2023-03-01T16:00:14;26.80;39.60
62589;DHT22;58504;48.770;9.148;2023-03-01T16:02:42;26.70;39.90
62589;DHT22;58504;48.770;9.148;2023-03-01T16:05:17;26.80;40.10
62589;DHT22;58504;48.770;9.148;2023-03-01T16:07:44;26.60;40.20
62589;DHT22;58504;48.770;9.148;2023-03-01T16:10:11;26.60;40.10
62589;DHT22;58504;48.770;9.148;2023-03-01T16:12:38;26.80;40.00
62589;DHT22;58504;48.770;9.148;2023-03-01T16:15:13;27.00;39.80
62589;DHT22;58504;48.770;9.148;2023-03-01T16:17:40;27.20;39.50
62589;DHT22;58504;48.770;9.148;2023-03-01T16:20:08;27.30;39.20